sensor_id;sensor_type;location;lat;lon;timestamp;P1;durP1;ratioP1;P2;durP2;ratioP2
3815;SDS011;1923;48.154;11.536;2023-05-23T00:02:14;10.73;;;6.97;;
3815;SDS011;1923;48.154;11.536;2023-05-23T00:04:42;10.53;;;5.87;;
3815;SDS011;1923;48.154;11.536;2023-05-23T00:07:10;11.50;;;7.13;;
3815;SDS011;1923;48.154;11.536;2023-05-23T00:09:38;12.23;;;6.60;;
3815;SDS011;1923;48.154;11.536;2023-05-23T00:12:07;10.60;;;6.77;;
3815;SDS011;1923;48.154;11.536;2023-05-23T00:14:35;11.03;;;6.37;;
3815;SDS011;1923;48.154;11.536;2023-05-23T00:17:07;9.70;;;7.23;;
3815;SDS011;1923;48.154;11.536;2023-05-23T00:19:36;11.53;;;7.07;;
3815;SDS011;1923;48.154;11.536;2023-05-23T00:22:04;11.33;;;6.87;;
3815;SDS011;1923;48.154;11.536;2023-05-23T00:24:32;9.50;;;6.37;;
3815;SDS011;1923;48.154;11.536;2023-05-23T00:27:00;10.40;;;6.77;;
3815;SDS011;1923;48.154;11.536;2023-05-23T00:29:29;10.53;;;6.50;;
3815;SDS011;1923;48.154;11.536;2023-05-23T00:31:57;10.30;;;6.50;;
3815;SDS011;1923;48.154;11.536;2023-05-23T00:34:25;12.03;;;6.77;;
3815;SDS011;1923;48.154;11.536;2023-05-23T00:36:53;13.00;;;6.20;;
3815;SDS011;1923;48.154;11.536;2023-05-23T00:39:23;9.40;;;6.27;;
3815;SDS011;1923;48.154;11.536;2023-05-23T00:41:51;10.73;;;6.53;;
3815;SDS011;1923;48.154;11.536;2023-05-23T00:44:19;10.07;;;6.00;;
3815;SDS011;1923;48.154;11.536;2023-05-23T00:46:50;10.53;;;6.47;;
3815;SDS011;1923;48.154;11.536;2023-05-23T00:49:21;10.70;;;6.40;;
3815;SDS011;1923;48.154;11.536;2023-05-23T00:51:49;11.70;;;6.73;;
3815;SDS011;1923;48.154;11.536;2023-05-23T00:54:19;11.00;;;6.37;;
3815;SDS011;1923;48.154;11.536;2023-05-23T00:56:52;8.77;;;6.13;;
3815;SDS011;1923;48.154;11.536;2023-05-23T00:59:21;8.70;;;6.40;;
3815;SDS011;1923;48.154;11.536;2023-05-23T01:01:53;9.20;;;6.03;;
3815;SDS011;1923;48.154;11.536;2023-05-23T01:04:23;9.90;;;6.00;;
3815;SDS011;1923;48.154;11.536;2023-05-23T01:06:53;12.57;;;6.80;;
3815;SDS011;1923;48.154;11.536;2023-05-23T01:09:21;10.30;;;5.90;;
3815;SDS011;1923;48.154;11.536;2023-05-23T01:11:53;11.30;;;6.87;;
3815;SDS011;1923;48.154;11.536;2023-05-23T01:14:31;9.50;;;6.10;;
3815;SDS011;1923;48.154;11.536;2023-05-23T01:17:16;11.23;;;5.80;;
3815;SDS011;1923;48.154;11.536;2023-05-23T01:19:55;8.47;;;5.37;;
3815;SDS011;1923;48.154;11.536;2023-05-23T01:22:32;11.30;;;6.20;;
3815;SDS011;1923;48.154;11.536;2023-05-23T01:25:16;9.80;;;6.67;;
3815;SDS011;1923;48.154;11.536;2023-05-23T01:27:56;10.57;;;6.40;;
3815;SDS011;1923;48.154;11.536;2023-05-23T01:30:30;12.60;;;7.20;;
3815;SDS011;1923;48.154;11.536;2023-05-23T01:33:01;11.37;;;6.30;;
3815;SDS011;1923;48.154;11.536;2023-05-23T01:35:31;8.47;;;6.10;;
3815;SDS011;1923;48.154;11.536;2023-05-23T01:37:59;9.10;;;6.33;;
3815;SDS011;1923;48.154;11.536;2023-05-23T01:40:28;8.40;;;5.70;;
3815;SDS011;1923;48.154;11.536;2023-05-23T01:42:57;9.97;;;6.17;;
3815;SDS011;1923;48.154;11.536;2023-05-23T01:45:25;11.80;;;6.57;;
3815;SDS011;1923;48.154;11.536;2023-05-23T01:47:56;8.90;;;5.60;;
3815;SDS011;1923;48.154;11.536;2023-05-23T01:50:24;12.50;;;6.40;;
3815;SDS011;1923;48.154;11.536;2023-05-23T01:52:53;10.77;;;6.60;;
3815;SDS011;1923;48.154;11.536;2023-05-23T01:55:22;11.50;;;6.70;;
3815;SDS011;1923;48.154;11.536;2023-05-23T01:57:52;11.13;;;6.70;;
3815;SDS011;1923;48.154;11.536;2023-05-23T02:00:23;10.73;;;6.47;;
3815;SDS011;1923;48.154;11.536;2023-05-23T02:02:51;10.80;;;7.13;;
3815;SDS011;1923;48.154;11.536;2023-05-23T02:05:19;10.93;;;7.20;;
3815;SDS011;1923;48.154;11.536;2023-05-23T02:07:47;13.93;;;6.90;;
3815;SDS011;1923;48.154;11.536;2023-05-23T02:10:15;11.40;;;7.30;;
3815;SDS011;1923;48.154;11.536;2023-05-23T02:12:44;11.37;;;6.90;;
3815;SDS011;1923;48.154;11.536;2023-05-23T02:15:12;10.30;;;7.40;;
3815;SDS011;1923;48.154;11.536;2023-05-23T02:17:41;10.43;;;6.63;;
3815;SDS011;1923;48.154;11.536;2023-05-23T02:20:09;14.23;;;7.63;;
3815;SDS011;1923;48.154;11.536;2023-05-23T02:22:38;11.53;;;6.43;;
3815;SDS011;1923;48.154;11.536;2023-05-23T02:25:06;12.87;;;7.23;;
3815;SDS011;1923;48.154;11.536;2023-05-23T02:27:35;11.47;;;7.50;;
3815;SDS011;1923;48.154;11.536;2023-05-23T02:30:04;11.67;;;7.30;;
3815;SDS011;1923;48.154;11.536;2023-05-23T02:32:34;12.03;;;7.07;;
3815;SDS011;1923;48.154;11.536;2023-05-23T02:35:04;11.80;;;7.13;;
3815;SDS011;1923;48.154;11.536;2023-05-23T02:37:33;11.40;;;7.87;;
3815;SDS011;1923;48.154;11.536;2023-05-23T02:40:01;11.27;;;7.07;;
3815;SDS011;1923;48.154;11.536;2023-05-23T02:42:32;12.70;;;6.80;;
3815;SDS011;1923;48.154;11.536;2023-05-23T02:45:00;11.73;;;7.00;;
3815;SDS011;1923;48.154;11.536;2023-05-23T02:47:28;11.60;;;7.70;;
3815;SDS011;1923;48.154;11.536;2023-05-23T02:49:56;12.33;;;7.33;;
3815;SDS011;1923;48.154;11.536;2023-05-23T02:52:26;15.60;;;7.67;;
3815;SDS011;1923;48.154;11.536;2023-05-23T02:54:54;11.87;;;7.13;;
3815;SDS011;1923;48.154;11.536;2023-05-23T02:57:22;14.27;;;7.70;;
3815;SDS011;1923;48.154;11.536;2023-05-23T02:59:50;16.83;;;8.83;;
3815;SDS011;1923;48.154;11.536;2023-05-23T03:02:18;14.60;;;9.20;;
3815;SDS011;1923;48.154;11.536;2023-05-23T03:04:46;12.40;;;7.60;;
3815;SDS011;1923;48.154;11.536;2023-05-23T03:07:16;15.13;;;8.27;;
3815;SDS011;1923;48.154;11.536;2023-05-23T03:09:54;12.67;;;8.03;;
3815;SDS011;1923;48.154;11.536;2023-05-23T03:12:23;17.53;;;9.43;;
3815;SDS011;1923;48.154;11.536;2023-05-23T03:14:51;13.07;;;8.17;;
3815;SDS011;1923;48.154;11.536;2023-05-23T03:17:19;15.13;;;8.50;;
3815;SDS011;1923;48.154;11.536;2023-05-23T03:19:47;13.00;;;8.23;;
3815;SDS011;1923;48.154;11.536;2023-05-23T03:22:15;14.13;;;8.50;;
3815;SDS011;1923;48.154;11.536;2023-05-23T03:24:43;13.17;;;7.27;;
3815;SDS011;1923;48.154;11.536;2023-05-23T03:27:12;14.23;;;8.27;;
3815;SDS011;1923;48.154;11.536;2023-05-23T03:29:40;13.63;;;8.53;;
3815;SDS011;1923;48.154;11.536;2023-05-23T03:32:08;13.23;;;8.40;;
3815;SDS011;1923;48.154;11.536;2023-05-23T03:34:36;14.87;;;8.77;;
3815;SDS011;1923;48.154;11.536;2023-05-23T03:37:05;13.03;;;8.30;;
3815;SDS011;1923;48.154;11.536;2023-05-23T03:39:33;16.70;;;8.87;;
3815;SDS011;1923;48.154;11.536;2023-05-23T03:42:04;13.10;;;8.70;;
3815;SDS011;1923;48.154;11.536;2023-05-23T03:44:34;15.63;;;8.50;;
3815;SDS011;1923;48.154;11.536;2023-05-23T03:47:02;15.63;;;9.07;;
3815;SDS011;1923;48.154;11.536;2023-05-23T03:49:31;15.53;;;8.20;;
3815;SDS011;1923;48.154;11.536;2023-05-23T03:51:59;14.60;;;8.10;;
3815;SDS011;1923;48.154;11.536;2023-05-23T03:54:27;15.57;;;9.30;;
3815;SDS011;1923;48.154;11.536;2023-05-23T03:56:55;17.03;;;9.30;;
3815;SDS011;1923;48.154;11.536;2023-05-23T03:59:23;15.00;;;9.00;;
3815;SDS011;1923;48.154;11.536;2023-05-23T04:01:52;14.20;;;9.23;;
3815;SDS011;1923;48.154;11.536;2023-05-23T04:04:21;15.00;;;8.93;;
3815;SDS011;1923;48.154;11.536;2023-05-23T04:06:50;17.57;;;9.77;;
3815;SDS011;1923;48.154;11.536;2023-05-23T04:09:18;20.17;;;10.40;;
3815;SDS011;1923;48.154;11.536;2023-05-23T04:11:46;19.30;;;10.40;;
3815;SDS011;1923;48.154;11.536;2023-05-23T04:14:15;15.83;;;9.33;;
3815;SDS011;1923;48.154;11.536;2023-05-23T04:16:45;16.40;;;9.27;;
3815;SDS011;1923;48.154;11.536;2023-05-23T04:19:14;17.93;;;9.70;;
3815;SDS011;1923;48.154;11.536;2023-05-23T04:21:42;19.20;;;10.47;;
3815;SDS011;1923;48.154;11.536;2023-05-23T04:24:10;16.50;;;9.17;;
3815;SDS011;1923;48.154;11.536;2023-05-23T04:26:38;15.87;;;10.17;;
3815;SDS011;1923;48.154;11.536;2023-05-23T04:29:08;21.03;;;10.57;;
3815;SDS011;1923;48.154;11.536;2023-05-23T04:31:37;18.47;;;10.60;;
3815;SDS011;1923;48.154;11.536;2023-05-23T04:34:05;14.33;;;9.03;;
3815;SDS011;1923;48.154;11.536;2023-05-23T04:36:36;16.27;;;9.20;;
3815;SDS011;1923;48.154;11.536;2023-05-23T04:39:04;17.97;;;10.20;;
3815;SDS011;1923;48.154;11.536;2023-05-23T04:41:33;22.10;;;11.10;;
3815;SDS011;1923;48.154;11.536;2023-05-23T04:44:01;18.03;;;10.77;;
3815;SDS011;1923;48.154;11.536;2023-05-23T04:46:31;33.63;;;16.47;;
3815;SDS011;1923;48.154;11.536;2023-05-23T04:49:00;24.73;;;13.43;;
3815;SDS011;1923;48.154;11.536;2023-05-23T04:51:28;25.13;;;12.17;;
3815;SDS011;1923;48.154;11.536;2023-05-23T04:53:57;18.37;;;11.30;;
3815;SDS011;1923;48.154;11.536;2023-05-23T04:56:26;19.07;;;11.83;;
3815;SDS011;1923;48.154;11.536;2023-05-23T04:58:54;19.40;;;10.97;;
3815;SDS011;1923;48.154;11.536;2023-05-23T05:01:23;20.10;;;11.50;;
3815;SDS011;1923;48.154;11.536;2023-05-23T05:03:51;19.80;;;10.90;;
3815;SDS011;1923;48.154;11.536;2023-05-23T05:06:19;20.80;;;10.00;;
3815;SDS011;1923;48.154;11.536;2023-05-23T05:08:47;22.47;;;10.10;;
3815;SDS011;1923;48.154;11.536;2023-05-23T05:11:17;18.17;;;10.70;;
3815;SDS011;1923;48.154;11.536;2023-05-23T05:13:45;18.43;;;11.47;;
3815;SDS011;1923;48.154;11.536;2023-05-23T05:16:13;27.53;;;11.40;;
3815;SDS011;1923;48.154;11.536;2023-05-23T05:18:41;18.23;;;10.27;;
3815;SDS011;1923;48.154;11.536;2023-05-23T05:21:09;17.73;;;9.83;;
3815;SDS011;1923;48.154;11.536;2023-05-23T05:23:37;18.47;;;10.50;;
3815;SDS011;1923;48.154;11.536;2023-05-23T05:26:05;20.67;;;11.13;;
3815;SDS011;1923;48.154;11.536;2023-05-23T05:28:35;18.97;;;10.60;;
3815;SDS011;1923;48.154;11.536;2023-05-23T05:31:03;19.90;;;11.77;;
3815;SDS011;1923;48.154;11.536;2023-05-23T05:33:31;24.73;;;10.97;;
3815;SDS011;1923;48.154;11.536;2023-05-23T05:36:01;19.43;;;10.33;;
3815;SDS011;1923;48.154;11.536;2023-05-23T05:38:29;22.70;;;9.97;;
3815;SDS011;1923;48.154;11.536;2023-05-23T05:40:57;17.30;;;10.10;;
3815;SDS011;1923;48.154;11.536;2023-05-23T05:43:25;19.40;;;11.53;;
3815;SDS011;1923;48.154;11.536;2023-05-23T05:45:55;17.03;;;10.27;;
3815;SDS011;1923;48.154;11.536;2023-05-23T05:48:23;18.60;;;10.90;;
3815;SDS011;1923;48.154;11.536;2023-05-23T05:50:51;17.23;;;9.50;;
3815;SDS011;1923;48.154;11.536;2023-05-23T05:53:19;19.23;;;10.03;;
3815;SDS011;1923;48.154;11.536;2023-05-23T05:55:47;16.87;;;10.23;;
3815;SDS011;1923;48.154;11.536;2023-05-23T05:58:15;17.83;;;10.10;;
3815;SDS011;1923;48.154;11.536;2023-05-23T06:00:44;18.77;;;9.10;;
3815;SDS011;1923;48.154;11.536;2023-05-23T06:03:14;18.00;;;9.40;;
3815;SDS011;1923;48.154;11.536;2023-05-23T06:05:42;18.60;;;11.13;;
3815;SDS011;1923;48.154;11.536;2023-05-23T06:08:10;18.03;;;9.30;;
3815;SDS011;1923;48.154;11.536;2023-05-23T06:10:38;16.00;;;9.57;;
3815;SDS011;1923;48.154;11.536;2023-05-23T06:13:07;16.27;;;9.50;;
3815;SDS011;1923;48.154;11.536;2023-05-23T06:15:35;16.20;;;9.47;;
3815;SDS011;1923;48.154;11.536;2023-05-23T06:18:03;18.27;;;9.50;;
3815;SDS011;1923;48.154;11.536;2023-05-23T06:20:32;24.33;;;10.63;;
3815;SDS011;1923;48.154;11.536;2023-05-23T06:23:00;20.83;;;10.83;;
3815;SDS011;1923;48.154;11.536;2023-05-23T06:25:31;18.53;;;9.90;;
3815;SDS011;1923;48.154;11.536;2023-05-23T06:27:59;17.80;;;9.53;;
3815;SDS011;1923;48.154;11.536;2023-05-23T06:30:27;15.30;;;9.03;;
3815;SDS011;1923;48.154;11.536;2023-05-23T06:32:55;21.77;;;11.27;;
3815;SDS011;1923;48.154;11.536;2023-05-23T06:35:24;20.63;;;10.30;;
3815;SDS011;1923;48.154;11.536;2023-05-23T06:37:53;20.17;;;10.20;;
3815;SDS011;1923;48.154;11.536;2023-05-23T06:40:21;15.90;;;9.83;;
3815;SDS011;1923;48.154;11.536;2023-05-23T06:42:49;15.67;;;10.70;;
3815;SDS011;1923;48.154;11.536;2023-05-23T06:45:17;21.33;;;10.50;;
3815;SDS011;1923;48.154;11.536;2023-05-23T06:47:45;18.90;;;10.10;;
3815;SDS011;1923;48.154;11.536;2023-05-23T06:50:14;18.93;;;10.40;;
3815;SDS011;1923;48.154;11.536;2023-05-23T06:52:45;15.23;;;9.83;;
3815;SDS011;1923;48.154;11.536;2023-05-23T06:55:14;17.93;;;10.07;;
3815;SDS011;1923;48.154;11.536;2023-05-23T06:57:44;18.10;;;9.37;;
3815;SDS011;1923;48.154;11.536;2023-05-23T07:00:16;22.20;;;12.43;;
3815;SDS011;1923;48.154;11.536;2023-05-23T07:02:44;22.73;;;10.17;;
3815;SDS011;1923;48.154;11.536;2023-05-23T07:05:14;18.97;;;11.10;;
3815;SDS011;1923;48.154;11.536;2023-05-23T07:07:42;22.20;;;11.03;;
3815;SDS011;1923;48.154;11.536;2023-05-23T07:10:10;21.10;;;11.30;;
3815;SDS011;1923;48.154;11.536;2023-05-23T07:12:40;20.90;;;11.57;;
3815;SDS011;1923;48.154;11.536;2023-05-23T07:15:09;17.53;;;10.70;;
3815;SDS011;1923;48.154;11.536;2023-05-23T07:17:37;18.67;;;11.13;;
3815;SDS011;1923;48.154;11.536;2023-05-23T07:20:06;20.93;;;11.10;;
3815;SDS011;1923;48.154;11.536;2023-05-23T07:22:35;17.83;;;10.67;;
3815;SDS011;1923;48.154;11.536;2023-05-23T07:25:03;20.70;;;10.63;;
3815;SDS011;1923;48.154;11.536;2023-05-23T07:27:32;21.57;;;10.83;;
3815;SDS011;1923;48.154;11.536;2023-05-23T07:30:02;20.10;;;10.57;;
3815;SDS011;1923;48.154;11.536;2023-05-23T07:32:30;20.27;;;11.17;;
3815;SDS011;1923;48.154;11.536;2023-05-23T07:34:58;19.83;;;10.93;;
3815;SDS011;1923;48.154;11.536;2023-05-23T07:37:26;19.90;;;10.93;;
3815;SDS011;1923;48.154;11.536;2023-05-23T07:39:54;19.43;;;10.50;;
3815;SDS011;1923;48.154;11.536;2023-05-23T07:42:22;20.40;;;11.00;;
3815;SDS011;1923;48.154;11.536;2023-05-23T07:44:50;23.27;;;11.73;;
3815;SDS011;1923;48.154;11.536;2023-05-23T07:47:20;22.67;;;12.20;;
3815;SDS011;1923;48.154;11.536;2023-05-23T07:49:49;26.07;;;13.30;;
3815;SDS011;1923;48.154;11.536;2023-05-23T07:52:18;23.47;;;11.97;;
3815;SDS011;1923;48.154;11.536;2023-05-23T07:54:46;17.67;;;10.43;;
3815;SDS011;1923;48.154;11.536;2023-05-23T07:57:14;21.47;;;11.03;;
3815;SDS011;1923;48.154;11.536;2023-05-23T07:59:42;23.63;;;13.27;;
3815;SDS011;1923;48.154;11.536;2023-05-23T08:02:10;22.07;;;11.53;;
3815;SDS011;1923;48.154;11.536;2023-05-23T08:04:40;20.73;;;11.47;;
3815;SDS011;1923;48.154;11.536;2023-05-23T08:07:08;24.30;;;11.83;;
3815;SDS011;1923;48.154;11.536;2023-05-23T08:09:37;21.67;;;12.20;;
3815;SDS011;1923;48.154;11.536;2023-05-23T08:12:05;18.47;;;11.40;;
3815;SDS011;1923;48.154;11.536;2023-05-23T08:14:34;23.40;;;12.40;;
3815;SDS011;1923;48.154;11.536;2023-05-23T08:17:16;21.40;;;11.03;;
3815;SDS011;1923;48.154;11.536;2023-05-23T08:19:46;20.97;;;11.60;;
3815;SDS011;1923;48.154;11.536;2023-05-23T08:22:14;21.17;;;11.77;;
3815;SDS011;1923;48.154;11.536;2023-05-23T08:24:42;17.30;;;10.60;;
3815;SDS011;1923;48.154;11.536;2023-05-23T08:27:10;21.40;;;11.40;;
3815;SDS011;1923;48.154;11.536;2023-05-23T08:29:38;21.50;;;11.80;;
3815;SDS011;1923;48.154;11.536;2023-05-23T08:32:06;19.07;;;11.47;;
3815;SDS011;1923;48.154;11.536;2023-05-23T08:34:34;17.97;;;11.20;;
3815;SDS011;1923;48.154;11.536;2023-05-23T08:37:04;26.63;;;12.67;;
3815;SDS011;1923;48.154;11.536;2023-05-23T08:39:32;18.97;;;11.27;;
3815;SDS011;1923;48.154;11.536;2023-05-23T08:42:00;22.67;;;12.27;;
3815;SDS011;1923;48.154;11.536;2023-05-23T08:44:28;23.47;;;11.67;;
3815;SDS011;1923;48.154;11.536;2023-05-23T08:46:56;21.57;;;11.93;;
3815;SDS011;1923;48.154;11.536;2023-05-23T08:49:30;20.17;;;12.30;;
3815;SDS011;1923;48.154;11.536;2023-05-23T08:52:00;24.43;;;13.17;;
3815;SDS011;1923;48.154;11.536;2023-05-23T08:54:30;22.70;;;13.00;;
3815;SDS011;1923;48.154;11.536;2023-05-23T08:56:59;26.43;;;13.50;;
3815;SDS011;1923;48.154;11.536;2023-05-23T08:59:28;22.73;;;12.83;;
3815;SDS011;1923;48.154;11.536;2023-05-23T09:01:58;24.60;;;12.97;;
3815;SDS011;1923;48.154;11.536;2023-05-23T09:04:28;23.27;;;11.73;;
3815;SDS011;1923;48.154;11.536;2023-05-23T09:06:58;23.00;;;12.50;;
3815;SDS011;1923;48.154;11.536;2023-05-23T09:09:27;26.53;;;13.00;;
3815;SDS011;1923;48.154;11.536;2023-05-23T09:11:57;19.23;;;11.40;;
3815;SDS011;1923;48.154;11.536;2023-05-23T09:14:26;18.20;;;11.43;;
3815;SDS011;1923;48.154;11.536;2023-05-23T09:16:59;20.77;;;10.60;;
3815;SDS011;1923;48.154;11.536;2023-05-23T09:19:30;17.47;;;11.00;;
3815;SDS011;1923;48.154;11.536;2023-05-23T09:21:59;22.60;;;12.03;;
3815;SDS011;1923;48.154;11.536;2023-05-23T09:24:35;23.07;;;13.47;;
3815;SDS011;1923;48.154;11.536;2023-05-23T09:27:05;21.07;;;11.70;;
3815;SDS011;1923;48.154;11.536;2023-05-23T09:29:35;23.13;;;12.80;;
3815;SDS011;1923;48.154;11.536;2023-05-23T09:32:09;21.07;;;11.63;;
3815;SDS011;1923;48.154;11.536;2023-05-23T09:34:41;24.80;;;12.27;;
3815;SDS011;1923;48.154;11.536;2023-05-23T09:37:10;22.13;;;11.97;;
3815;SDS011;1923;48.154;11.536;2023-05-23T09:39:45;21.03;;;12.17;;
3815;SDS011;1923;48.154;11.536;2023-05-23T09:42:18;25.13;;;12.10;;
3815;SDS011;1923;48.154;11.536;2023-05-23T09:44:47;21.77;;;13.53;;
3815;SDS011;1923;48.154;11.536;2023-05-23T09:47:15;22.17;;;11.60;;
3815;SDS011;1923;48.154;11.536;2023-05-23T09:49:44;21.90;;;11.70;;
3815;SDS011;1923;48.154;11.536;2023-05-23T09:52:13;20.03;;;11.50;;
3815;SDS011;1923;48.154;11.536;2023-05-23T09:54:41;26.60;;;13.67;;
3815;SDS011;1923;48.154;11.536;2023-05-23T09:57:12;23.00;;;12.90;;
3815;SDS011;1923;48.154;11.536;2023-05-23T09:59:44;27.97;;;13.80;;
3815;SDS011;1923;48.154;11.536;2023-05-23T10:02:17;24.50;;;13.10;;
3815;SDS011;1923;48.154;11.536;2023-05-23T10:05:15;24.50;;;13.80;;
3815;SDS011;1923;48.154;11.536;2023-05-23T10:07:57;19.43;;;10.80;;
3815;SDS011;1923;48.154;11.536;2023-05-23T10:10:30;27.30;;;13.70;;
3815;SDS011;1923;48.154;11.536;2023-05-23T10:13:01;25.80;;;14.50;;
3815;SDS011;1923;48.154;11.536;2023-05-23T10:15:34;25.30;;;14.60;;
3815;SDS011;1923;48.154;11.536;2023-05-23T10:18:11;23.93;;;13.53;;
3815;SDS011;1923;48.154;11.536;2023-05-23T10:20:48;27.53;;;13.13;;
3815;SDS011;1923;48.154;11.536;2023-05-23T10:23:19;20.40;;;11.17;;
3815;SDS011;1923;48.154;11.536;2023-05-23T10:25:48;19.90;;;11.40;;
3815;SDS011;1923;48.154;11.536;2023-05-23T10:28:17;24.53;;;13.63;;
3815;SDS011;1923;48.154;11.536;2023-05-23T10:30:47;22.97;;;12.87;;
3815;SDS011;1923;48.154;11.536;2023-05-23T10:33:16;21.33;;;12.37;;
3815;SDS011;1923;48.154;11.536;2023-05-23T10:35:46;20.93;;;12.10;;
3815;SDS011;1923;48.154;11.536;2023-05-23T10:38:28;22.57;;;12.70;;
3815;SDS011;1923;48.154;11.536;2023-05-23T10:41:05;25.37;;;14.70;;
3815;SDS011;1923;48.154;11.536;2023-05-23T10:43:39;20.33;;;11.43;;
3815;SDS011;1923;48.154;11.536;2023-05-23T10:46:13;19.60;;;11.90;;
3815;SDS011;1923;48.154;11.536;2023-05-23T10:48:42;16.30;;;10.00;;
3815;SDS011;1923;48.154;11.536;2023-05-23T10:51:11;18.13;;;10.37;;
3815;SDS011;1923;48.154;11.536;2023-05-23T10:53:41;18.90;;;11.00;;
3815;SDS011;1923;48.154;11.536;2023-05-23T10:56:10;17.07;;;10.20;;
3815;SDS011;1923;48.154;11.536;2023-05-23T10:58:50;18.40;;;9.93;;
3815;SDS011;1923;48.154;11.536;2023-05-23T11:01:21;14.93;;;9.80;;
3815;SDS011;1923;48.154;11.536;2023-05-23T11:03:50;14.93;;;9.77;;
3815;SDS011;1923;48.154;11.536;2023-05-23T11:06:30;15.60;;;9.00;;
3815;SDS011;1923;48.154;11.536;2023-05-23T11:09:01;16.23;;;8.77;;
3815;SDS011;1923;48.154;11.536;2023-05-23T11:14:30;13.70;;;8.93;;
3815;SDS011;1923;48.154;11.536;2023-05-23T11:17:13;18.90;;;13.50;;
3815;SDS011;1923;48.154;11.536;2023-05-23T11:19:54;13.20;;;8.23;;
3815;SDS011;1923;48.154;11.536;2023-05-23T11:22:27;17.00;;;8.90;;
3815;SDS011;1923;48.154;11.536;2023-05-23T11:24:56;13.67;;;8.20;;
3815;SDS011;1923;48.154;11.536;2023-05-23T11:27:26;13.70;;;8.43;;
3815;SDS011;1923;48.154;11.536;2023-05-23T11:30:01;15.73;;;8.57;;
3815;SDS011;1923;48.154;11.536;2023-05-23T11:32:32;16.40;;;9.67;;
3815;SDS011;1923;48.154;11.536;2023-05-23T11:35:01;16.17;;;8.80;;
3815;SDS011;1923;48.154;11.536;2023-05-23T11:37:30;12.33;;;8.33;;
3815;SDS011;1923;48.154;11.536;2023-05-23T11:39:59;15.90;;;9.73;;
3815;SDS011;1923;48.154;11.536;2023-05-23T11:42:54;16.27;;;9.60;;
3815;SDS011;1923;48.154;11.536;2023-05-23T11:45:22;17.10;;;9.47;;
3815;SDS011;1923;48.154;11.536;2023-05-23T11:47:52;13.43;;;9.03;;
3815;SDS011;1923;48.154;11.536;2023-05-23T11:50:21;12.47;;;8.07;;
3815;SDS011;1923;48.154;11.536;2023-05-23T11:52:50;19.43;;;9.67;;
3815;SDS011;1923;48.154;11.536;2023-05-23T11:55:20;12.60;;;8.83;;
3815;SDS011;1923;48.154;11.536;2023-05-23T11:57:49;15.90;;;8.97;;
3815;SDS011;1923;48.154;11.536;2023-05-23T12:00:18;13.87;;;9.30;;
3815;SDS011;1923;48.154;11.536;2023-05-23T12:02:47;15.13;;;8.57;;
3815;SDS011;1923;48.154;11.536;2023-05-23T12:05:17;12.30;;;8.30;;
3815;SDS011;1923;48.154;11.536;2023-05-23T12:07:45;13.37;;;8.07;;
3815;SDS011;1923;48.154;11.536;2023-05-23T12:10:15;10.83;;;7.60;;
3815;SDS011;1923;48.154;11.536;2023-05-23T12:12:46;14.13;;;8.30;;
3815;SDS011;1923;48.154;11.536;2023-05-23T12:15:14;15.50;;;8.33;;
3815;SDS011;1923;48.154;11.536;2023-05-23T12:17:42;12.63;;;8.30;;
3815;SDS011;1923;48.154;11.536;2023-05-23T12:20:12;15.23;;;8.23;;
3815;SDS011;1923;48.154;11.536;2023-05-23T12:22:41;13.63;;;8.63;;
3815;SDS011;1923;48.154;11.536;2023-05-23T12:25:09;12.07;;;9.90;;
3815;SDS011;1923;48.154;11.536;2023-05-23T12:27:38;14.53;;;8.50;;
3815;SDS011;1923;48.154;11.536;2023-05-23T12:30:10;14.00;;;8.90;;
3815;SDS011;1923;48.154;11.536;2023-05-23T12:32:42;13.07;;;8.67;;
3815;SDS011;1923;48.154;11.536;2023-05-23T12:35:12;14.70;;;9.07;;
3815;SDS011;1923;48.154;11.536;2023-05-23T12:37:44;12.17;;;8.40;;
3815;SDS011;1923;48.154;11.536;2023-05-23T12:40:13;12.17;;;7.47;;
3815;SDS011;1923;48.154;11.536;2023-05-23T12:42:51;13.60;;;7.67;;
3815;SDS011;1923;48.154;11.536;2023-05-23T12:45:21;13.87;;;7.73;;
3815;SDS011;1923;48.154;11.536;2023-05-23T12:47:50;11.13;;;8.10;;
3815;SDS011;1923;48.154;11.536;2023-05-23T12:50:19;12.80;;;7.73;;
3815;SDS011;1923;48.154;11.536;2023-05-23T12:52:49;16.00;;;9.30;;
3815;SDS011;1923;48.154;11.536;2023-05-23T12:55:17;14.50;;;8.80;;
3815;SDS011;1923;48.154;11.536;2023-05-23T12:57:45;11.10;;;7.73;;
3815;SDS011;1923;48.154;11.536;2023-05-23T13:00:13;15.47;;;8.60;;
3815;SDS011;1923;48.154;11.536;2023-05-23T13:02:42;14.70;;;8.40;;
3815;SDS011;1923;48.154;11.536;2023-05-23T13:05:10;16.70;;;8.20;;
3815;SDS011;1923;48.154;11.536;2023-05-23T13:07:38;11.73;;;7.00;;
3815;SDS011;1923;48.154;11.536;2023-05-23T13:10:09;11.80;;;7.40;;
3815;SDS011;1923;48.154;11.536;2023-05-23T13:12:37;15.50;;;8.10;;
3815;SDS011;1923;48.154;11.536;2023-05-23T13:15:06;11.53;;;7.77;;
3815;SDS011;1923;48.154;11.536;2023-05-23T13:17:35;11.90;;;7.83;;
3815;SDS011;1923;48.154;11.536;2023-05-23T13:20:03;10.97;;;7.37;;
3815;SDS011;1923;48.154;11.536;2023-05-23T13:22:32;14.93;;;8.10;;
3815;SDS011;1923;48.154;11.536;2023-05-23T13:25:00;12.67;;;7.70;;
3815;SDS011;1923;48.154;11.536;2023-05-23T13:27:30;11.50;;;7.80;;
3815;SDS011;1923;48.154;11.536;2023-05-23T13:29:58;11.40;;;7.60;;
3815;SDS011;1923;48.154;11.536;2023-05-23T13:32:26;11.07;;;6.97;;
3815;SDS011;1923;48.154;11.536;2023-05-23T13:34:54;11.53;;;6.83;;
3815;SDS011;1923;48.154;11.536;2023-05-23T13:37:22;15.23;;;7.30;;
3815;SDS011;1923;48.154;11.536;2023-05-23T13:39:51;11.37;;;7.30;;
3815;SDS011;1923;48.154;11.536;2023-05-23T13:42:19;12.20;;;7.47;;
3815;SDS011;1923;48.154;11.536;2023-05-23T13:44:48;12.03;;;8.30;;
3815;SDS011;1923;48.154;11.536;2023-05-23T13:47:16;12.77;;;8.43;;
3815;SDS011;1923;48.154;11.536;2023-05-23T13:49:44;12.80;;;7.73;;
3815;SDS011;1923;48.154;11.536;2023-05-23T13:52:12;10.47;;;7.33;;
3815;SDS011;1923;48.154;11.536;2023-05-23T13:54:40;11.80;;;7.40;;
3815;SDS011;1923;48.154;11.536;2023-05-23T13:57:09;9.07;;;6.57;;
3815;SDS011;1923;48.154;11.536;2023-05-23T13:59:37;9.67;;;7.57;;
3815;SDS011;1923;48.154;11.536;2023-05-23T14:02:06;12.73;;;7.77;;
3815;SDS011;1923;48.154;11.536;2023-05-23T14:04:35;11.27;;;7.67;;
3815;SDS011;1923;48.154;11.536;2023-05-23T14:07:03;10.10;;;6.87;;
3815;SDS011;1923;48.154;11.536;2023-05-23T14:09:31;10.63;;;7.10;;
3815;SDS011;1923;48.154;11.536;2023-05-23T14:11:59;12.33;;;7.33;;
3815;SDS011;1923;48.154;11.536;2023-05-23T14:14:27;11.23;;;7.23;;
3815;SDS011;1923;48.154;11.536;2023-05-23T14:16:56;10.80;;;7.33;;
3815;SDS011;1923;48.154;11.536;2023-05-23T14:19:25;13.73;;;7.43;;
3815;SDS011;1923;48.154;11.536;2023-05-23T14:21:53;11.70;;;7.30;;
3815;SDS011;1923;48.154;11.536;2023-05-23T14:24:21;9.97;;;6.47;;
3815;SDS011;1923;48.154;11.536;2023-05-23T14:26:49;9.37;;;6.47;;
3815;SDS011;1923;48.154;11.536;2023-05-23T14:29:17;9.83;;;6.77;;
3815;SDS011;1923;48.154;11.536;2023-05-23T14:31:45;11.13;;;7.40;;
3815;SDS011;1923;48.154;11.536;2023-05-23T14:34:13;10.80;;;7.23;;
3815;SDS011;1923;48.154;11.536;2023-05-23T14:36:43;10.87;;;7.03;;
3815;SDS011;1923;48.154;11.536;2023-05-23T14:39:11;10.63;;;7.03;;
3815;SDS011;1923;48.154;11.536;2023-05-23T14:41:39;12.57;;;7.57;;
3815;SDS011;1923;48.154;11.536;2023-05-23T14:44:07;11.67;;;7.40;;
3815;SDS011;1923;48.154;11.536;2023-05-23T14:46:35;10.53;;;7.77;;
3815;SDS011;1923;48.154;11.536;2023-05-23T14:49:04;13.70;;;7.10;;
3815;SDS011;1923;48.154;11.536;2023-05-23T14:51:32;11.30;;;7.10;;
3815;SDS011;1923;48.154;11.536;2023-05-23T14:54:15;9.60;;;6.13;;
3815;SDS011;1923;48.154;11.536;2023-05-23T14:56:43;11.80;;;6.03;;
3815;SDS011;1923;48.154;11.536;2023-05-23T14:59:11;10.10;;;6.93;;
3815;SDS011;1923;48.154;11.536;2023-05-23T15:01:40;10.77;;;6.53;;